createdAt,value
2016-04-28T00:00:29.809Z,1010.23
2016-04-28T00:01:29.827Z,1010.21
2016-04-28T00:02:29.860Z,1010.21
2016-04-28T00:03:29.880Z,1010.27
2016-04-28T00:04:29.898Z,1010.26
2016-04-28T00:05:29.916Z,1010.24
2016-04-28T00:06:29.949Z,1010.25
2016-04-28T00:07:29.969Z,1010.21
2016-04-28T00:08:29.987Z,1010.22
2016-04-28T00:09:30.004Z,1010.21
2016-04-28T00:10:30.695Z,1010.19
2016-04-28T00:11:30.573Z,1010.2
2016-04-28T00:12:30.091Z,1010.19
2016-04-28T00:13:30.094Z,1010.19
2016-04-28T00:14:30.112Z,1010.23
2016-04-28T00:15:30.145Z,1010.23
2016-04-28T00:16:30.165Z,1010.24
2016-04-28T00:17:30.182Z,1010.22
2016-04-28T00:18:30.217Z,1010.23
2016-04-28T00:19:30.219Z,1010.25
2016-04-28T00:20:30.253Z,1010.23
2016-04-28T00:21:30.272Z,1010.22
2016-04-28T00:22:30.290Z,1010.24
2016-04-28T00:23:30.308Z,1010.28
2016-04-28T00:24:30.342Z,1010.29
2016-04-28T00:25:30.361Z,1010.31
2016-04-28T00:26:30.379Z,1010.33
2016-04-28T00:27:30.397Z,1010.37
2016-04-28T00:28:30.415Z,1010.35
2016-04-28T00:29:30.450Z,1010.41
2016-04-28T00:30:30.467Z,1010.41
2016-04-28T00:31:30.486Z,1010.42
2016-04-28T00:32:30.504Z,1010.37
2016-04-28T00:33:30.522Z,1010.37
2016-04-28T00:34:30.557Z,1010.37
2016-04-28T00:35:30.574Z,1010.38
2016-04-28T00:36:30.593Z,1010.35
2016-04-28T00:37:30.611Z,1010.34
2016-04-28T00:38:30.646Z,1010.33
2016-04-28T00:39:30.663Z,1010.38
2016-04-28T00:40:30.682Z,1010.37
2016-04-28T00:41:30.700Z,1010.39
2016-04-28T00:42:30.735Z,1010.37
2016-04-28T00:43:30.737Z,1010.35
2016-04-28T00:44:30.771Z,1010.35
2016-04-28T00:45:30.789Z,1010.34
2016-04-28T00:46:30.807Z,1010.34
2016-04-28T00:47:30.842Z,1010.32
2016-04-28T00:48:30.859Z,1010.33
2016-04-28T00:49:30.878Z,1010.32
2016-04-28T00:50:30.896Z,1010.34
2016-04-28T00:51:30.915Z,1010.32
2016-04-28T00:52:30.948Z,1010.32
2016-04-28T00:53:30.967Z,1010.31
2016-04-28T00:54:30.986Z,1010.37
2016-04-28T00:55:31.003Z,1010.33
2016-04-28T00:56:31.569Z,1010.3
2016-04-28T00:57:31.040Z,1010.29
2016-04-28T00:58:31.074Z,1010.32
2016-04-28T00:59:31.092Z,1010.32
2016-04-28T01:00:31.111Z,1010.32
2016-04-28T01:01:31.144Z,1010.31
2016-04-28T01:02:31.163Z,1010.31
2016-04-28T01:03:31.181Z,1010.28
2016-04-28T01:04:31.200Z,1010.32
2016-04-28T01:05:31.218Z,1010.36
2016-04-28T01:06:31.236Z,1010.32
2016-04-28T01:07:31.270Z,1010.26
2016-04-28T01:08:31.288Z,1010.31
2016-04-28T01:09:31.307Z,1010.35
2016-04-28T01:10:31.324Z,1010.3
2016-04-28T01:11:31.343Z,1010.34
2016-04-28T01:12:31.362Z,1010.27
2016-04-28T01:13:31.396Z,1010.25
2016-04-28T01:14:31.414Z,1010.29
2016-04-28T01:15:31.448Z,1010.27
2016-04-28T01:16:31.451Z,1010.32
2016-04-28T01:17:31.485Z,1010.32
2016-04-28T01:18:31.503Z,1010.33
2016-04-28T01:19:31.521Z,1010.35
2016-04-28T01:20:31.539Z,1010.36
2016-04-28T01:21:31.573Z,1010.3
2016-04-28T01:22:31.592Z,1010.38
2016-04-28T01:23:31.609Z,1010.37
2016-04-28T01:24:31.628Z,1010.38
2016-04-28T01:25:31.647Z,1010.29
2016-04-28T01:26:31.759Z,1010.38
2016-04-28T01:27:31.699Z,1010.34
2016-04-28T01:28:31.717Z,1010.35
2016-04-28T01:29:31.736Z,1010.39
2016-04-28T01:30:31.754Z,1010.34
2016-04-28T01:31:31.788Z,1010.35
2016-04-28T01:32:31.805Z,1010.32
2016-04-28T01:33:31.824Z,1010.4
2016-04-28T01:34:31.858Z,1010.31
2016-04-28T01:35:31.877Z,1010.37
2016-04-28T01:36:31.894Z,1010.35
2016-04-28T01:37:31.914Z,1010.36
2016-04-28T01:38:31.932Z,1010.34
2016-04-28T01:39:31.950Z,1010.35
2016-04-28T01:40:31.968Z,1010.4
2016-04-28T01:41:32.002Z,1010.39
2016-04-28T01:42:32.021Z,1010.37
2016-04-28T01:43:32.039Z,1010.4
2016-04-28T01:44:32.057Z,1010.38
2016-04-28T01:45:32.075Z,1010.44
2016-04-28T01:46:32.110Z,1010.44
2016-04-28T01:47:32.128Z,1010.41
2016-04-28T01:48:32.146Z,1010.42
2016-04-28T01:49:32.179Z,1010.41
2016-04-28T01:50:32.183Z,1010.42
2016-04-28T01:51:32.217Z,1010.4
2016-04-28T01:52:32.234Z,1010.44
2016-04-28T01:53:32.254Z,1010.45
2016-04-28T01:54:32.272Z,1010.45
2016-04-28T01:55:32.306Z,1010.42
2016-04-28T01:56:32.323Z,1010.44
2016-04-28T01:57:32.342Z,1010.44
2016-04-28T01:58:32.360Z,1010.44
2016-04-28T01:59:32.379Z,1010.45
2016-04-28T02:00:32.397Z,1010.51
2016-04-28T02:01:32.430Z,1010.49
2016-04-28T02:02:32.450Z,1010.43
2016-04-28T02:03:32.467Z,1010.47
2016-04-28T02:04:32.486Z,1010.46
2016-04-28T02:05:32.504Z,1010.49
2016-04-28T02:06:32.538Z,1010.52
2016-04-28T02:07:32.557Z,1010.49
2016-04-28T02:08:32.575Z,1010.53
2016-04-28T02:09:32.593Z,1010.5
2016-04-28T02:10:32.627Z,1010.52
2016-04-28T02:11:32.630Z,1010.52
2016-04-28T02:12:32.663Z,1010.52
2016-04-28T02:13:32.682Z,1010.53
2016-04-28T02:14:32.700Z,1010.5
2016-04-28T02:15:32.719Z,1010.52
2016-04-28T02:16:32.752Z,1010.5
2016-04-28T02:17:32.787Z,1010.52
2016-04-28T02:18:32.790Z,1010.53
2016-04-28T02:19:32.807Z,1010.55
2016-04-28T02:20:32.826Z,1010.51
2016-04-28T02:21:32.859Z,1010.52
2016-04-28T02:22:32.878Z,1010.53
2016-04-28T02:23:32.902Z,1010.5
2016-04-28T02:24:32.921Z,1010.53
2016-04-28T02:25:32.939Z,1010.57
2016-04-28T02:26:32.957Z,1010.58
2016-04-28T02:27:32.975Z,1010.47
2016-04-28T02:28:33.010Z,1010.54
2016-04-28T02:29:33.028Z,1010.56
2016-04-28T02:30:33.046Z,1010.49
2016-04-28T02:31:33.064Z,1010.5
2016-04-28T02:32:33.083Z,1010.48
2016-04-28T02:33:33.117Z,1010.54
2016-04-28T02:34:33.134Z,1010.58
2016-04-28T02:35:33.154Z,1010.5
2016-04-28T02:36:33.172Z,1010.57
2016-04-28T02:37:33.190Z,1010.57
2016-04-28T02:38:33.208Z,1010.6
2016-04-28T02:39:33.226Z,1010.61
2016-04-28T02:40:33.261Z,1010.59
2016-04-28T02:41:33.279Z,1010.61
2016-04-28T02:42:33.297Z,1010.6
2016-04-28T02:43:33.315Z,1010.6
2016-04-28T02:44:33.334Z,1010.63
2016-04-28T02:45:33.368Z,1010.61
2016-04-28T02:46:33.386Z,1010.6
2016-04-28T02:47:33.404Z,1010.59
2016-04-28T02:48:33.423Z,1010.64
2016-04-28T02:49:33.457Z,1010.61
2016-04-28T02:50:33.474Z,1010.63
2016-04-28T02:51:33.493Z,1010.65
2016-04-28T02:52:33.511Z,1010.59
2016-04-28T02:53:33.530Z,1010.64
2016-04-28T02:54:33.548Z,1010.62
2016-04-28T02:55:33.582Z,1010.67
2016-04-28T02:56:33.601Z,1010.63
2016-04-28T02:57:33.618Z,1010.65
2016-04-28T02:58:33.637Z,1010.65
2016-04-28T02:59:33.655Z,1010.64
2016-04-28T03:00:33.690Z,1010.62
2016-04-28T03:01:33.692Z,1010.66
2016-04-28T03:02:33.726Z,1010.64
2016-04-28T03:03:33.744Z,1010.65
2016-04-28T03:04:33.762Z,1010.64
2016-04-28T03:05:33.812Z,1010.65
2016-04-28T03:06:33.799Z,1010.68
2016-04-28T03:07:33.833Z,1010.63
2016-04-28T03:08:33.851Z,1010.64
2016-04-28T03:09:33.870Z,1010.66
2016-04-28T03:10:33.903Z,1010.67
2016-04-28T03:11:33.906Z,1010.62
2016-04-28T03:12:33.941Z,1010.65
2016-04-28T03:13:33.958Z,1010.63
2016-04-28T03:14:33.977Z,1010.63
2016-04-28T03:15:33.995Z,1010.65
2016-04-28T03:16:34.013Z,1010.6
2016-04-28T03:17:34.032Z,1010.64
2016-04-28T03:18:34.066Z,1010.61
2016-04-28T03:19:34.084Z,1010.61
2016-04-28T03:20:34.102Z,1010.64
2016-04-28T03:21:34.121Z,1010.6
2016-04-28T03:22:34.155Z,1010.66
2016-04-28T03:23:34.157Z,1010.65
2016-04-28T03:24:34.191Z,1010.66
2016-04-28T03:25:34.210Z,1010.64
2016-04-28T03:26:34.228Z,1010.63
2016-04-28T03:27:34.246Z,1010.62
2016-04-28T03:28:34.264Z,1010.64
2016-04-28T03:29:34.299Z,1010.66
2016-04-28T03:30:34.317Z,1010.68
2016-04-28T03:31:34.335Z,1010.7
2016-04-28T03:32:34.353Z,1010.7
2016-04-28T03:33:34.372Z,1010.71
2016-04-28T03:34:34.406Z,1010.71
2016-04-28T03:35:34.423Z,1010.68
2016-04-28T03:36:34.442Z,1010.64
2016-04-28T03:37:34.461Z,1010.69
2016-04-28T03:38:34.479Z,1010.69
2016-04-28T03:39:34.497Z,1010.67
2016-04-28T03:40:34.530Z,1010.67
2016-04-28T03:41:34.550Z,1010.67
2016-04-28T03:42:34.567Z,1010.68
2016-04-28T03:43:34.586Z,1010.73
2016-04-28T03:44:34.604Z,1010.7
2016-04-28T03:45:34.623Z,1010.69
2016-04-28T03:46:34.641Z,1010.76
2016-04-28T03:47:34.674Z,1010.76
2016-04-28T03:48:34.694Z,1010.76
2016-04-28T03:49:34.711Z,1010.76
2016-04-28T03:50:34.730Z,1010.74
2016-04-28T03:51:34.748Z,1010.76
2016-04-28T03:52:34.782Z,1010.78
2016-04-28T03:53:34.801Z,1010.77
2016-04-28T03:54:34.818Z,1010.78
2016-04-28T03:55:34.837Z,1010.8
2016-04-28T03:56:34.855Z,1010.8
2016-04-28T03:57:34.874Z,1010.8
2016-04-28T03:58:34.907Z,1010.86
2016-04-28T03:59:34.926Z,1010.81
2016-04-28T04:00:34.945Z,1010.79
2016-04-28T04:01:34.963Z,1010.81
2016-04-28T04:02:34.981Z,1010.78
2016-04-28T04:03:34.999Z,1010.85
2016-04-28T04:04:35.018Z,1010.83
2016-04-28T04:05:35.051Z,1010.81
2016-04-28T04:06:35.070Z,1010.85
2016-04-28T04:07:35.088Z,1010.86
2016-04-28T04:08:35.106Z,1010.87
2016-04-28T04:09:35.125Z,1010.91
2016-04-28T04:10:35.143Z,1010.87
2016-04-28T04:11:35.177Z,1010.84
2016-04-28T04:12:35.195Z,1010.85
2016-04-28T04:13:35.214Z,1010.85
2016-04-28T04:14:35.232Z,1010.88
2016-04-28T04:15:35.250Z,1010.87
2016-04-28T04:16:35.269Z,1010.91
2016-04-28T04:17:35.287Z,1010.9
2016-04-28T04:18:35.305Z,1010.92
2016-04-28T04:19:35.338Z,1010.94
2016-04-28T04:20:35.358Z,1010.92
2016-04-28T04:21:35.376Z,1010.96
2016-04-28T04:22:35.394Z,1010.99
2016-04-28T04:23:35.412Z,1010.92
2016-04-28T04:24:35.447Z,1010.94
2016-04-28T04:25:35.465Z,1010.92
2016-04-28T04:26:35.483Z,1010.92
2016-04-28T04:27:35.501Z,1010.92
2016-04-28T04:28:35.520Z,1010.91
2016-04-28T04:29:35.538Z,1010.96
2016-04-28T04:30:35.556Z,1010.99
2016-04-28T04:31:35.574Z,1010.97
2016-04-28T04:32:35.609Z,1010.98
2016-04-28T04:33:35.626Z,1010.98
2016-04-28T04:34:35.645Z,1011.03
2016-04-28T04:35:35.663Z,1011.02
2016-04-28T04:36:35.682Z,1011.03
2016-04-28T04:37:35.715Z,1011.02
2016-04-28T04:38:35.734Z,1011.03
2016-04-28T04:39:35.753Z,1011.04
2016-04-28T04:40:35.770Z,1011.01
2016-04-28T04:41:35.789Z,1011.01
2016-04-28T04:42:35.807Z,1011.03
2016-04-28T04:43:35.825Z,1011.03
2016-04-28T04:44:35.859Z,1011.08
2016-04-28T04:45:35.862Z,1011.03
2016-04-28T04:46:35.896Z,1011.01
2016-04-28T04:47:35.914Z,1011.03
2016-04-28T04:48:35.933Z,1011.01
2016-04-28T04:49:35.951Z,1011.03
2016-04-28T04:50:35.969Z,1011.07
2016-04-28T04:51:36.003Z,1011.02
2016-04-28T04:52:36.022Z,1011.08
2016-04-28T04:53:36.040Z,1011.07
2016-04-28T04:54:36.058Z,1011.11
2016-04-28T04:55:36.077Z,1011.12
2016-04-28T04:56:36.095Z,1011.12
2016-04-28T04:57:36.129Z,1011.12
2016-04-28T04:58:36.146Z,1011.17
2016-04-28T04:59:36.166Z,1011.17
2016-04-28T05:00:36.184Z,1011.18
2016-04-28T05:01:36.202Z,1011.19
2016-04-28T05:02:36.220Z,1011.23
2016-04-28T05:03:36.239Z,1011.24
2016-04-28T05:04:36.273Z,1011.22
2016-04-28T05:05:36.306Z,1011.21
2016-04-28T05:06:36.309Z,1011.19
2016-04-28T05:07:36.328Z,1011.22
2016-04-28T05:08:36.362Z,1011.24
2016-04-28T05:09:36.364Z,1011.23
2016-04-28T05:10:36.397Z,1011.29
2016-04-28T05:11:36.416Z,1011.26
2016-04-28T05:12:36.435Z,1011.27
2016-04-28T05:13:36.453Z,1011.33
2016-04-28T05:14:36.486Z,1011.32
2016-04-28T05:15:36.506Z,1011.32
2016-04-28T05:16:36.524Z,1011.36
2016-04-28T05:17:36.542Z,1011.38
2016-04-28T05:18:36.575Z,1011.37
2016-04-28T05:19:36.595Z,1011.43
2016-04-28T05:20:36.612Z,1011.37
2016-04-28T05:21:36.631Z,1011.41
2016-04-28T05:22:36.665Z,1011.46
2016-04-28T05:23:36.667Z,1011.45
2016-04-28T05:24:36.701Z,1011.48
2016-04-28T05:25:36.720Z,1011.43
2016-04-28T05:26:36.738Z,1011.45
2016-04-28T05:27:36.756Z,1011.47
2016-04-28T05:28:36.791Z,1011.47
2016-04-28T05:29:36.809Z,1011.46
2016-04-28T05:30:36.843Z,1011.47
2016-04-28T05:31:36.845Z,1011.52
2016-04-28T05:32:36.880Z,1011.47
2016-04-28T05:33:36.897Z,1011.53
2016-04-28T05:34:36.916Z,1011.56
2016-04-28T05:35:36.950Z,1011.59
2016-04-28T05:36:36.967Z,1011.61
2016-04-28T05:37:36.986Z,1011.6
2016-04-28T05:38:37.005Z,1011.61
2016-04-28T05:39:37.039Z,1011.63
2016-04-28T05:40:37.056Z,1011.63
2016-04-28T05:41:37.091Z,1011.59
2016-04-28T05:42:37.984Z,1011.55
2016-04-28T05:43:37.128Z,1011.57
2016-04-28T05:44:37.146Z,1011.53
2016-04-28T05:45:37.180Z,1011.56
2016-04-28T05:46:37.197Z,1011.53
2016-04-28T05:47:37.217Z,1011.58
2016-04-28T05:48:37.250Z,1011.63
2016-04-28T05:49:37.269Z,1011.64
2016-04-28T05:50:37.286Z,1011.66
2016-04-28T05:51:37.306Z,1011.68
2016-04-28T05:52:37.339Z,1011.63
2016-04-28T05:53:37.374Z,1011.68
2016-04-28T05:54:37.391Z,1011.7
2016-04-28T05:55:37.425Z,1011.7
2016-04-28T05:56:38.319Z,1011.69
2016-04-28T05:57:37.446Z,1011.71
2016-04-28T05:58:37.480Z,1011.71
2016-04-28T05:59:37.499Z,1011.65
2016-04-28T06:00:37.523Z,1011.68
2016-04-28T06:01:37.598Z,1011.7
2016-04-28T06:02:37.656Z,1011.67
2016-04-28T06:03:37.731Z,1011.68
2016-04-28T06:04:37.790Z,1011.69
2016-04-28T06:05:37.845Z,1011.69
2016-04-28T06:06:37.893Z,1011.69
2016-04-28T06:07:37.927Z,1011.71
2016-04-28T06:08:37.976Z,1011.71
2016-04-28T06:09:38.008Z,1011.75
2016-04-28T06:10:38.040Z,1011.66
2016-04-28T06:11:38.094Z,1011.66
2016-04-28T06:12:38.102Z,1011.65
2016-04-28T06:13:38.140Z,1011.63
2016-04-28T06:14:38.165Z,1011.67
2016-04-28T06:15:38.187Z,1011.68
2016-04-28T06:16:38.223Z,1011.7
2016-04-28T06:17:38.243Z,1011.67
2016-04-28T06:18:38.279Z,1011.67
2016-04-28T06:19:38.299Z,1011.68
2016-04-28T06:20:38.335Z,1011.7
2016-04-28T06:21:38.354Z,1011.7
2016-04-28T06:22:38.373Z,1011.68
2016-04-28T06:23:38.407Z,1011.69
2016-04-28T06:24:38.427Z,1011.69
2016-04-28T06:25:38.462Z,1011.74
2016-04-28T06:26:38.495Z,1011.76
2016-04-28T06:27:38.515Z,1011.74
2016-04-28T06:28:38.533Z,1011.78
2016-04-28T06:29:38.583Z,1011.79
2016-04-28T06:30:38.602Z,1011.76
2016-04-28T06:31:38.620Z,1011.84
2016-04-28T06:32:38.655Z,1011.79
2016-04-28T06:33:38.673Z,1011.82
2016-04-28T06:34:38.707Z,1011.82
2016-04-28T06:35:38.725Z,1011.84
2016-04-28T06:36:38.759Z,1011.82
2016-04-28T06:37:38.776Z,1011.87
2016-04-28T06:38:38.795Z,1011.84
2016-04-28T06:39:38.829Z,1011.9
2016-04-28T06:40:38.863Z,1011.88
2016-04-28T06:41:38.881Z,1011.87
2016-04-28T06:42:38.915Z,1011.9
2016-04-28T06:43:38.934Z,1011.91
2016-04-28T06:44:38.967Z,1011.91
2016-04-28T06:45:38.986Z,1011.94
2016-04-28T06:46:39.020Z,1011.9
2016-04-28T06:47:39.039Z,1011.94
2016-04-28T06:48:39.072Z,1011.93
2016-04-28T06:49:39.106Z,1011.91
2016-04-28T06:50:39.124Z,1011.98
2016-04-28T06:51:39.159Z,1011.95
2016-04-28T06:52:39.177Z,1011.94
2016-04-28T06:53:39.211Z,1011.96
2016-04-28T06:54:39.244Z,1012
2016-04-28T06:55:39.263Z,1012.01
2016-04-28T06:56:39.297Z,1011.99
2016-04-28T06:57:39.315Z,1011.97
2016-04-28T06:58:39.349Z,1011.96
2016-04-28T06:59:39.367Z,1011.97
2016-04-28T07:00:39.401Z,1011.98
2016-04-28T07:01:39.420Z,1011.99
2016-04-28T07:02:39.454Z,1011.99
2016-04-28T07:03:39.487Z,1012.05
2016-04-28T07:04:39.507Z,1012.04
2016-04-28T07:05:39.540Z,1012.03
2016-04-28T07:06:39.557Z,1012.02
2016-04-28T07:07:39.592Z,1012.02
2016-04-28T07:08:39.610Z,1012.01
2016-04-28T07:09:39.644Z,1012.05
2016-04-28T07:10:39.679Z,1012.07
2016-04-28T07:11:43.103Z,1012.12
2016-04-28T07:12:39.731Z,1012.11
2016-04-28T07:13:39.749Z,1012.1
2016-04-28T07:14:39.783Z,1012.07
2016-04-28T07:15:39.817Z,1012.06
2016-04-28T07:16:39.834Z,1012.03
2016-04-28T07:17:39.869Z,1012.06
2016-04-28T07:18:39.887Z,1012.11
2016-04-28T07:19:39.921Z,1012.11
2016-04-28T07:20:39.939Z,1012.09
2016-04-28T07:21:39.973Z,1012.07
2016-04-28T07:22:40.009Z,1012.06
2016-04-28T07:23:40.027Z,1012.03
2016-04-28T07:24:40.092Z,1012.08
2016-04-28T07:25:40.076Z,1012.06
2016-04-28T07:26:40.113Z,1012.05
2016-04-28T07:27:40.131Z,1012.03
2016-04-28T07:28:40.164Z,1012.01
2016-04-28T07:29:40.199Z,1012.02
2016-04-28T07:30:40.217Z,1012
2016-04-28T07:31:40.251Z,1012.03
2016-04-28T07:32:40.270Z,1012.02
2016-04-28T07:33:40.304Z,1012
2016-04-28T07:34:40.338Z,1012
2016-04-28T07:35:40.356Z,1012.05
2016-04-28T07:36:40.389Z,1012.04
2016-04-28T07:37:40.408Z,1012.01
2016-04-28T07:38:40.441Z,1012.02
2016-04-28T07:39:40.476Z,1012.03
2016-04-28T07:40:40.494Z,1011.99
2016-04-28T07:41:41.247Z,1011.99
2016-04-28T07:42:41.437Z,1012
2016-04-28T07:43:40.580Z,1012.03
2016-04-28T07:44:40.615Z,1012.02
2016-04-28T07:45:40.633Z,1012.03
2016-04-28T07:46:40.667Z,1012.06
2016-04-28T07:47:40.685Z,1012.05
2016-04-28T07:48:40.718Z,1012.09
2016-04-28T07:49:40.753Z,1012.1
2016-04-28T07:50:40.771Z,1012.07
2016-04-28T07:51:40.804Z,1012.08
2016-04-28T07:52:40.839Z,1012.07
2016-04-28T07:53:40.857Z,1012.1
2016-04-28T07:54:40.892Z,1012.1
2016-04-28T07:55:40.926Z,1012.11
2016-04-28T07:56:40.944Z,1012.13
2016-04-28T07:57:40.978Z,1012.13
2016-04-28T07:58:40.996Z,1012.11
2016-04-28T07:59:41.030Z,1012.14
2016-04-28T08:00:41.064Z,1012.14
2016-04-28T08:01:41.082Z,1012.21
2016-04-28T08:02:41.116Z,1012.16
2016-04-28T08:03:41.134Z,1012.17
2016-04-28T08:04:41.168Z,1012.21
2016-04-28T08:05:41.202Z,1012.22
2016-04-28T08:06:41.220Z,1012.19
2016-04-28T08:07:41.241Z,1012.21
2016-04-28T08:08:41.268Z,1012.19
2016-04-28T08:09:41.287Z,1012.2
2016-04-28T08:10:41.321Z,1012.18
2016-04-28T08:11:41.354Z,1012.19
2016-04-28T08:12:41.389Z,1012.19
2016-04-28T08:13:44.047Z,1012.19
2016-04-28T08:14:41.457Z,1012.22
2016-04-28T08:15:41.475Z,1012.18
2016-04-28T08:16:41.493Z,1012.18
2016-04-28T08:17:41.528Z,1012.21
2016-04-28T08:18:41.546Z,1012.2
2016-04-28T08:19:41.580Z,1012.18
2016-04-28T08:20:41.597Z,1012.23
2016-04-28T08:21:41.631Z,1012.22
2016-04-28T08:22:41.650Z,1012.19
2016-04-28T08:23:41.684Z,1012.2
2016-04-28T08:24:41.718Z,1012.19
2016-04-28T08:25:41.736Z,1012.19
2016-04-28T08:26:41.770Z,1012.26
2016-04-28T08:27:41.805Z,1012.24
2016-04-28T08:28:41.886Z,1012.22
2016-04-28T08:29:41.857Z,1012.22
2016-04-28T08:30:41.875Z,1012.22
2016-04-28T08:31:41.908Z,1012.24
2016-04-28T08:32:41.943Z,1012.23
2016-04-28T08:33:41.977Z,1012.26
2016-04-28T08:34:41.995Z,1012.22
2016-04-28T08:35:42.029Z,1012.27
2016-04-28T08:36:42.047Z,1012.21
2016-04-28T08:37:42.081Z,1012.24
2016-04-28T08:38:42.115Z,1012.25
2016-04-28T08:39:42.133Z,1012.2
2016-04-28T08:40:42.168Z,1012.24
2016-04-28T08:41:42.186Z,1012.24
2016-04-28T08:42:42.220Z,1012.23
2016-04-28T08:43:42.238Z,1012.21
2016-04-28T08:44:42.272Z,1012.23
2016-04-28T08:45:42.306Z,1012.28
2016-04-28T08:46:42.324Z,1012.26
2016-04-28T08:47:42.358Z,1012.23
2016-04-28T08:48:42.392Z,1012.17
2016-04-28T08:49:42.411Z,1012.2
2016-04-28T08:50:42.445Z,1012.19
2016-04-28T08:51:42.478Z,1012.21
2016-04-28T08:52:42.497Z,1012.19
2016-04-28T08:53:42.514Z,1012.21
2016-04-28T08:54:42.564Z,1012.17
2016-04-28T08:55:42.567Z,1012.16
2016-04-28T08:56:42.601Z,1012.12
2016-04-28T08:57:42.635Z,1012.11
2016-04-28T08:58:42.653Z,1012.11
2016-04-28T08:59:42.687Z,1012.15
2016-04-28T09:00:42.705Z,1012.15
2016-04-28T09:01:42.739Z,1012.14
2016-04-28T09:02:42.774Z,1012.17
2016-04-28T09:03:42.792Z,1012.15
2016-04-28T09:04:42.826Z,1012.16
2016-04-28T09:05:42.860Z,1012.15
2016-04-28T09:06:42.878Z,1012.13
2016-04-28T09:07:42.912Z,1012.1
2016-04-28T09:08:42.930Z,1012.09
2016-04-28T09:09:42.964Z,1012.1
2016-04-28T09:10:42.982Z,1012.07
2016-04-28T09:11:43.016Z,1012.07
2016-04-28T09:12:45.176Z,1012.11
2016-04-28T09:13:43.069Z,1012.08
2016-04-28T09:14:43.103Z,1012.12
2016-04-28T09:15:43.121Z,1012.14
2016-04-28T09:16:43.154Z,1012.11
2016-04-28T09:17:43.189Z,1012.1
2016-04-28T09:18:43.207Z,1012.12
2016-04-28T09:19:43.225Z,1012.14
2016-04-28T09:20:43.259Z,1012.15
2016-04-28T09:21:43.293Z,1012.15
2016-04-28T09:22:43.311Z,1012.14
2016-04-28T09:23:43.345Z,1012.14
2016-04-28T09:24:43.364Z,1012.15
2016-04-28T09:25:43.398Z,1012.16
2016-04-28T09:26:43.603Z,1012.16
2016-04-28T09:27:43.450Z,1012.17
2016-04-28T09:28:43.483Z,1012.12
2016-04-28T09:29:43.502Z,1012.13
2016-04-28T09:30:43.535Z,1012.1
2016-04-28T09:31:43.554Z,1012.12
2016-04-28T09:32:43.589Z,1012.16
2016-04-28T09:33:43.622Z,1012.15
2016-04-28T09:34:43.640Z,1012.12
2016-04-28T09:35:43.674Z,1012.12
2016-04-28T09:36:43.693Z,1012.12
2016-04-28T09:37:43.727Z,1012.14
2016-04-28T09:38:43.745Z,1012.07
2016-04-28T09:39:43.779Z,1012.08
2016-04-28T09:40:43.797Z,1012.12
2016-04-28T09:41:43.831Z,1012.09
2016-04-28T09:42:43.850Z,1012.07
2016-04-28T09:43:43.884Z,1012.12
2016-04-28T09:44:43.902Z,1012.1
2016-04-28T09:45:43.936Z,1012.11
2016-04-28T09:46:43.970Z,1012.04
2016-04-28T09:47:43.987Z,1012.09
2016-04-28T09:48:44.022Z,1012.12
2016-04-28T09:49:44.040Z,1012.06
2016-04-28T09:50:44.075Z,1012.05
2016-04-28T09:51:44.108Z,1012.07
2016-04-28T09:52:44.126Z,1012.03
2016-04-28T09:53:44.145Z,1012.04
2016-04-28T09:54:44.178Z,1012.03
2016-04-28T09:55:44.213Z,1012.01
2016-04-28T09:56:44.230Z,1012
2016-04-28T09:57:45.780Z,1011.98
2016-04-28T09:58:44.283Z,1011.97
2016-04-28T09:59:44.317Z,1011.99
2016-04-28T10:00:44.336Z,1011.97
2016-04-28T10:01:44.369Z,1011.98
2016-04-28T10:02:44.388Z,1011.99
2016-04-28T10:03:44.406Z,1011.99
2016-04-28T10:04:44.440Z,1011.95
2016-04-28T10:05:44.474Z,1011.99
2016-04-28T10:06:44.493Z,1011.97
2016-04-28T10:07:44.527Z,1012.02
2016-04-28T10:08:44.545Z,1011.97
2016-04-28T10:09:44.579Z,1011.92
2016-04-28T10:10:44.644Z,1011.91
2016-04-28T10:11:44.629Z,1011.92
2016-04-28T10:12:44.647Z,1011.91
2016-04-28T10:13:44.679Z,1011.97
2016-04-28T10:14:44.698Z,1011.92
2016-04-28T10:15:44.733Z,1011.92
2016-04-28T10:16:44.751Z,1011.9
2016-04-28T10:17:45.928Z,1011.86
2016-04-28T10:18:44.818Z,1011.93
2016-04-28T10:19:44.837Z,1011.9
2016-04-28T10:20:44.870Z,1011.93
2016-04-28T10:21:44.890Z,1011.94
2016-04-28T10:22:44.970Z,1011.89
2016-04-28T10:23:44.957Z,1011.88
2016-04-28T10:24:44.975Z,1011.9
2016-04-28T10:25:45.010Z,1011.87
2016-04-28T10:26:45.028Z,1011.9
2016-04-28T10:27:45.375Z,1011.9
2016-04-28T10:28:45.080Z,1011.89
2016-04-28T10:29:45.114Z,1011.91
2016-04-28T10:30:45.133Z,1011.88
2016-04-28T10:31:45.166Z,1011.89
2016-04-28T10:32:45.185Z,1011.93
2016-04-28T10:33:45.219Z,1011.92
2016-04-28T10:34:45.236Z,1011.94
2016-04-28T10:35:45.271Z,1011.95
2016-04-28T10:36:45.305Z,1012
2016-04-28T10:37:45.324Z,1011.94
2016-04-28T10:38:45.342Z,1011.93
2016-04-28T10:39:45.374Z,1012.01
2016-04-28T10:40:45.393Z,1011.99
2016-04-28T10:41:45.427Z,1011.99
2016-04-28T10:42:45.462Z,1012.04
2016-04-28T10:43:45.479Z,1012.07
2016-04-28T10:44:45.513Z,1012.01
2016-04-28T10:45:45.532Z,1011.92
2016-04-28T10:46:45.566Z,1011.92
2016-04-28T10:47:45.585Z,1011.95
2016-04-28T10:48:45.618Z,1011.93
2016-04-28T10:49:45.652Z,1011.93
2016-04-28T10:50:45.671Z,1011.93
2016-04-28T10:51:45.689Z,1011.84
2016-04-28T10:52:45.754Z,1011.89
2016-04-28T10:53:45.756Z,1011.88
2016-04-28T10:54:45.775Z,1011.86
2016-04-28T10:55:45.809Z,1011.85
2016-04-28T10:56:46.531Z,1011.85
2016-04-28T10:57:45.861Z,1011.82
2016-04-28T10:58:45.880Z,1011.84
2016-04-28T10:59:45.914Z,1011.78
2016-04-28T11:00:45.931Z,1011.8
2016-04-28T11:01:45.966Z,1011.83
2016-04-28T11:02:45.984Z,1011.85
2016-04-28T11:03:46.019Z,1011.77
2016-04-28T11:04:46.036Z,1011.72
2016-04-28T11:05:46.070Z,1011.76
2016-04-28T11:06:46.088Z,1011.71
2016-04-28T11:07:46.122Z,1011.68
2016-04-28T11:08:46.141Z,1011.7
2016-04-28T11:09:46.174Z,1011.7
2016-04-28T11:10:46.208Z,1011.72
2016-04-28T11:11:46.227Z,1011.66
2016-04-28T11:12:46.855Z,1011.63
2016-04-28T11:13:46.295Z,1011.67
2016-04-28T11:14:46.313Z,1011.64
2016-04-28T11:15:46.332Z,1011.52
2016-04-28T11:16:46.365Z,1011.61
2016-04-28T11:17:46.384Z,1011.69
2016-04-28T11:18:46.418Z,1011.65
2016-04-28T11:19:46.436Z,1011.62
2016-04-28T11:20:46.464Z,1011.66
2016-04-28T11:21:46.497Z,1011.66
2016-04-28T11:22:46.517Z,1011.67
2016-04-28T11:23:46.551Z,1011.71
2016-04-28T11:24:46.569Z,1011.67
2016-04-28T11:25:46.603Z,1011.68
2016-04-28T11:26:46.636Z,1011.69
2016-04-28T11:27:46.655Z,1011.69
2016-04-28T11:28:46.689Z,1011.69
2016-04-28T11:29:46.707Z,1011.65
2016-04-28T11:30:46.741Z,1011.67
2016-04-28T11:31:46.759Z,1011.65
2016-04-28T11:32:46.794Z,1011.69
2016-04-28T11:33:46.812Z,1011.63
2016-04-28T11:34:46.846Z,1011.59
2016-04-28T11:35:46.863Z,1011.59
2016-04-28T11:36:46.898Z,1011.67
2016-04-28T11:37:46.915Z,1011.64
2016-04-28T11:38:46.949Z,1011.62
2016-04-28T11:39:46.984Z,1011.59
2016-04-28T11:40:47.002Z,1011.58
2016-04-28T11:41:47.037Z,1011.55
2016-04-28T11:42:47.273Z,1011.55
2016-04-28T11:43:47.088Z,1011.54
2016-04-28T11:44:47.123Z,1011.45
2016-04-28T11:45:47.141Z,1011.48
2016-04-28T11:46:47.159Z,1011.48
2016-04-28T11:47:47.193Z,1011.48
2016-04-28T11:48:47.227Z,1011.52
2016-04-28T11:49:47.245Z,1011.43
2016-04-28T11:50:47.514Z,1011.51
2016-04-28T11:51:47.298Z,1011.48
2016-04-28T11:52:47.317Z,1011.52
2016-04-28T11:53:47.350Z,1011.51
2016-04-28T11:54:47.383Z,1011.48
2016-04-28T11:55:47.402Z,1011.55
2016-04-28T11:56:47.436Z,1011.55
2016-04-28T11:57:47.720Z,1011.55
2016-04-28T11:58:47.489Z,1011.56
2016-04-28T11:59:47.506Z,1011.58
2016-04-28T12:00:47.541Z,1011.56
2016-04-28T12:01:47.559Z,1011.55
2016-04-28T12:02:47.593Z,1011.62
2016-04-28T12:03:47.627Z,1011.6
2016-04-28T12:04:47.644Z,1011.67
2016-04-28T12:05:47.679Z,1011.61
2016-04-28T12:06:47.697Z,1011.71
2016-04-28T12:07:47.732Z,1011.67
2016-04-28T12:08:47.749Z,1011.66